sensor_id;sensor_type;location;lat;lon;timestamp;P1;durP1;ratioP1;P2;durP2;ratioP2
14722;SDS011;7452;55.594;12.986;2023-05-21T06:56:35;10.23;;;2.30;;
14722;SDS011;7452;55.594;12.986;2023-05-21T06:59:02;6.27;;;1.93;;
14722;SDS011;7452;55.594;12.986;2023-05-21T07:01:29;3.17;;;1.50;;
14722;SDS011;7452;55.594;12.986;2023-05-21T07:03:56;22.33;;;2.83;;
14722;SDS011;7452;55.594;12.986;2023-05-21T07:06:23;5.17;;;1.90;;
14722;SDS011;7452;55.594;12.986;2023-05-21T07:40:32;2.73;;;1.40;;
14722;SDS011;7452;55.594;12.986;2023-05-21T08:17:14;4.20;;;2.03;;
14722;SDS011;7452;55.594;12.986;2023-05-21T08:19:41;8.77;;;2.10;;
14722;SDS011;7452;55.594;12.986;2023-05-21T08:33:09;4.33;;;1.63;;
14722;SDS011;7452;55.594;12.986;2023-05-21T08:35:36;6.00;;;2.00;;
14722;SDS011;7452;55.594;12.986;2023-05-21T08:38:03;5.60;;;1.67;;
14722;SDS011;7452;55.594;12.986;2023-05-21T08:40:30;4.03;;;1.70;;
14722;SDS011;7452;55.594;12.986;2023-05-21T08:42:57;4.23;;;1.93;;
14722;SDS011;7452;55.594;12.986;2023-05-21T08:45:24;3.90;;;1.70;;
14722;SDS011;7452;55.594;12.986;2023-05-21T08:47:53;4.77;;;1.70;;
14722;SDS011;7452;55.594;12.986;2023-05-21T08:50:25;4.60;;;1.70;;
14722;SDS011;7452;55.594;12.986;2023-05-21T08:52:52;3.43;;;2.10;;
14722;SDS011;7452;55.594;12.986;2023-05-21T08:55:20;9.03;;;1.90;;
14722;SDS011;7452;55.594;12.986;2023-05-21T08:57:47;3.43;;;1.93;;
14722;SDS011;7452;55.594;12.986;2023-05-21T09:00:14;4.87;;;2.17;;
14722;SDS011;7452;55.594;12.986;2023-05-21T09:02:42;3.63;;;1.90;;
14722;SDS011;7452;55.594;12.986;2023-05-21T09:05:10;3.30;;;1.50;;
14722;SDS011;7452;55.594;12.986;2023-05-21T09:07:55;2.20;;;1.90;;
14722;SDS011;7452;55.594;12.986;2023-05-21T09:10:28;3.63;;;1.70;;
14722;SDS011;7452;55.594;12.986;2023-05-21T09:13:00;3.63;;;1.63;;
14722;SDS011;7452;55.594;12.986;2023-05-21T09:15:28;4.47;;;2.17;;
14722;SDS011;7452;55.594;12.986;2023-05-21T09:17:55;3.57;;;1.90;;
14722;SDS011;7452;55.594;12.986;2023-05-21T09:20:23;4.00;;;1.60;;
14722;SDS011;7452;55.594;12.986;2023-05-21T09:22:52;2.40;;;1.60;;
14722;SDS011;7452;55.594;12.986;2023-05-21T09:25:20;3.33;;;1.90;;
14722;SDS011;7452;55.594;12.986;2023-05-21T09:27:48;2.17;;;1.80;;
14722;SDS011;7452;55.594;12.986;2023-05-21T09:30:16;4.90;;;1.70;;
14722;SDS011;7452;55.594;12.986;2023-05-21T09:32:43;5.30;;;1.97;;
14722;SDS011;7452;55.594;12.986;2023-05-21T09:35:11;3.90;;;1.90;;
14722;SDS011;7452;55.594;12.986;2023-05-21T09:37:39;3.80;;;1.90;;
14722;SDS011;7452;55.594;12.986;2023-05-21T09:40:12;4.00;;;1.80;;
14722;SDS011;7452;55.594;12.986;2023-05-21T09:42:40;5.80;;;1.87;;
14722;SDS011;7452;55.594;12.986;2023-05-21T09:45:08;5.63;;;1.97;;
14722;SDS011;7452;55.594;12.986;2023-05-21T09:47:39;1.93;;;1.30;;
14722;SDS011;7452;55.594;12.986;2023-05-21T09:50:09;3.40;;;1.90;;
14722;SDS011;7452;55.594;12.986;2023-05-21T09:52:36;1.90;;;1.40;;
14722;SDS011;7452;55.594;12.986;2023-05-21T09:55:04;4.67;;;1.80;;
14722;SDS011;7452;55.594;12.986;2023-05-21T09:57:38;4.20;;;2.07;;
14722;SDS011;7452;55.594;12.986;2023-05-21T10:00:06;3.10;;;2.07;;
14722;SDS011;7452;55.594;12.986;2023-05-21T10:02:36;3.83;;;1.70;;
14722;SDS011;7452;55.594;12.986;2023-05-21T10:05:08;3.40;;;1.97;;
14722;SDS011;7452;55.594;12.986;2023-05-21T10:07:37;3.20;;;1.70;;
14722;SDS011;7452;55.594;12.986;2023-05-21T10:10:06;2.83;;;1.63;;
14722;SDS011;7452;55.594;12.986;2023-05-21T10:12:38;2.83;;;1.87;;
14722;SDS011;7452;55.594;12.986;2023-05-21T10:15:08;6.27;;;1.67;;
14722;SDS011;7452;55.594;12.986;2023-05-21T10:17:39;2.17;;;1.70;;
14722;SDS011;7452;55.594;12.986;2023-05-21T10:20:07;3.20;;;1.70;;
14722;SDS011;7452;55.594;12.986;2023-05-21T10:22:36;3.03;;;1.70;;
14722;SDS011;7452;55.594;12.986;2023-05-21T10:25:04;4.07;;;2.13;;
14722;SDS011;7452;55.594;12.986;2023-05-21T10:27:33;3.80;;;1.93;;
14722;SDS011;7452;55.594;12.986;2023-05-21T10:30:03;4.73;;;1.77;;
14722;SDS011;7452;55.594;12.986;2023-05-21T10:32:31;2.70;;;1.90;;
14722;SDS011;7452;55.594;12.986;2023-05-21T10:34:59;4.23;;;2.00;;
14722;SDS011;7452;55.594;12.986;2023-05-21T10:37:27;5.60;;;1.67;;
14722;SDS011;7452;55.594;12.986;2023-05-21T10:39:54;6.53;;;2.03;;
14722;SDS011;7452;55.594;12.986;2023-05-21T10:42:23;4.53;;;2.03;;
14722;SDS011;7452;55.594;12.986;2023-05-21T10:45:13;6.00;;;1.90;;
14722;SDS011;7452;55.594;12.986;2023-05-21T10:51:12;8.27;;;2.23;;
14722;SDS011;7452;55.594;12.986;2023-05-21T10:53:48;5.93;;;2.60;;
14722;SDS011;7452;55.594;12.986;2023-05-21T10:56:31;6.40;;;2.07;;
14722;SDS011;7452;55.594;12.986;2023-05-21T10:59:09;6.17;;;1.90;;
14722;SDS011;7452;55.594;12.986;2023-05-21T11:01:49;5.37;;;2.00;;
14722;SDS011;7452;55.594;12.986;2023-05-21T11:04:20;7.03;;;2.13;;
14722;SDS011;7452;55.594;12.986;2023-05-21T11:06:48;4.97;;;2.10;;
14722;SDS011;7452;55.594;12.986;2023-05-21T11:09:15;4.40;;;2.10;;
14722;SDS011;7452;55.594;12.986;2023-05-21T11:11:42;4.23;;;1.90;;
14722;SDS011;7452;55.594;12.986;2023-05-21T11:14:31;7.30;;;2.13;;
14722;SDS011;7452;55.594;12.986;2023-05-21T11:17:08;3.33;;;1.73;;
14722;SDS011;7452;55.594;12.986;2023-05-21T11:19:37;5.17;;;2.10;;
14722;SDS011;7452;55.594;12.986;2023-05-21T11:22:05;5.63;;;1.90;;
14722;SDS011;7452;55.594;12.986;2023-05-21T11:24:45;3.73;;;1.80;;
14722;SDS011;7452;55.594;12.986;2023-05-21T11:27:12;2.53;;;1.67;;
14722;SDS011;7452;55.594;12.986;2023-05-21T11:29:55;2.70;;;1.60;;
14722;SDS011;7452;55.594;12.986;2023-05-21T11:32:23;3.87;;;1.67;;
14722;SDS011;7452;55.594;12.986;2023-05-21T11:34:50;4.63;;;1.90;;
14722;SDS011;7452;55.594;12.986;2023-05-21T11:40:17;1.73;;;1.60;;
14722;SDS011;7452;55.594;12.986;2023-05-21T11:42:47;2.77;;;1.60;;
14722;SDS011;7452;55.594;12.986;2023-05-21T11:45:17;2.97;;;1.50;;
14722;SDS011;7452;55.594;12.986;2023-05-21T11:47:46;2.33;;;1.50;;
14722;SDS011;7452;55.594;12.986;2023-05-21T11:50:13;2.33;;;1.57;;
14722;SDS011;7452;55.594;12.986;2023-05-21T11:52:41;3.60;;;1.93;;
14722;SDS011;7452;55.594;12.986;2023-05-21T11:55:09;1.63;;;1.53;;
14722;SDS011;7452;55.594;12.986;2023-05-21T11:57:36;3.10;;;1.57;;
14722;SDS011;7452;55.594;12.986;2023-05-21T12:00:11;2.33;;;1.80;;
14722;SDS011;7452;55.594;12.986;2023-05-21T12:02:42;3.03;;;1.80;;
14722;SDS011;7452;55.594;12.986;2023-05-21T12:05:11;2.77;;;1.60;;
14722;SDS011;7452;55.594;12.986;2023-05-21T12:07:38;2.37;;;1.70;;
14722;SDS011;7452;55.594;12.986;2023-05-21T12:10:06;4.00;;;1.73;;
14722;SDS011;7452;55.594;12.986;2023-05-21T12:12:33;2.53;;;1.60;;
14722;SDS011;7452;55.594;12.986;2023-05-21T12:15:00;2.67;;;1.87;;
14722;SDS011;7452;55.594;12.986;2023-05-21T12:17:29;3.63;;;1.93;;
14722;SDS011;7452;55.594;12.986;2023-05-21T12:19:57;2.73;;;1.87;;
14722;SDS011;7452;55.594;12.986;2023-05-21T12:22:27;2.73;;;1.90;;
14722;SDS011;7452;55.594;12.986;2023-05-21T12:24:54;3.27;;;1.93;;
14722;SDS011;7452;55.594;12.986;2023-05-21T12:27:22;4.40;;;1.87;;
14722;SDS011;7452;55.594;12.986;2023-05-21T12:29:49;2.47;;;1.77;;
14722;SDS011;7452;55.594;12.986;2023-05-21T12:32:18;2.63;;;1.80;;
14722;SDS011;7452;55.594;12.986;2023-05-21T12:34:46;2.90;;;1.90;;
14722;SDS011;7452;55.594;12.986;2023-05-21T12:37:14;4.63;;;1.80;;
14722;SDS011;7452;55.594;12.986;2023-05-21T12:39:44;2.03;;;1.47;;
14722;SDS011;7452;55.594;12.986;2023-05-21T12:42:12;3.43;;;1.87;;
14722;SDS011;7452;55.594;12.986;2023-05-21T12:44:42;1.70;;;1.60;;
14722;SDS011;7452;55.594;12.986;2023-05-21T12:47:10;3.43;;;1.97;;
14722;SDS011;7452;55.594;12.986;2023-05-21T12:49:38;2.07;;;1.73;;
14722;SDS011;7452;55.594;12.986;2023-05-21T12:52:09;2.80;;;2.00;;
14722;SDS011;7452;55.594;12.986;2023-05-21T12:54:38;2.57;;;1.80;;
14722;SDS011;7452;55.594;12.986;2023-05-21T12:57:12;2.40;;;1.77;;
14722;SDS011;7452;55.594;12.986;2023-05-21T12:59:47;2.33;;;2.13;;
14722;SDS011;7452;55.594;12.986;2023-05-21T13:02:15;1.97;;;1.70;;
14722;SDS011;7452;55.594;12.986;2023-05-21T13:04:45;1.80;;;1.70;;
14722;SDS011;7452;55.594;12.986;2023-05-21T13:07:13;2.03;;;1.83;;
14722;SDS011;7452;55.594;12.986;2023-05-21T13:09:41;2.03;;;1.83;;
14722;SDS011;7452;55.594;12.986;2023-05-21T13:12:08;2.97;;;2.00;;
14722;SDS011;7452;55.594;12.986;2023-05-21T13:14:38;4.50;;;2.10;;
14722;SDS011;7452;55.594;12.986;2023-05-21T13:17:05;2.83;;;1.93;;
14722;SDS011;7452;55.594;12.986;2023-05-21T13:19:32;2.73;;;1.83;;
14722;SDS011;7452;55.594;12.986;2023-05-21T13:21:58;2.73;;;1.90;;
14722;SDS011;7452;55.594;12.986;2023-05-21T13:24:25;2.23;;;1.80;;
14722;SDS011;7452;55.594;12.986;2023-05-21T13:26:52;3.30;;;2.10;;
14722;SDS011;7452;55.594;12.986;2023-05-21T13:29:19;2.13;;;1.93;;
14722;SDS011;7452;55.594;12.986;2023-05-21T13:31:47;2.80;;;1.90;;
14722;SDS011;7452;55.594;12.986;2023-05-21T13:34:14;2.30;;;1.93;;
14722;SDS011;7452;55.594;12.986;2023-05-21T13:36:41;2.60;;;1.93;;
14722;SDS011;7452;55.594;12.986;2023-05-21T13:39:08;3.00;;;1.90;;
14722;SDS011;7452;55.594;12.986;2023-05-21T13:41:35;2.00;;;1.70;;
14722;SDS011;7452;55.594;12.986;2023-05-21T13:44:02;2.20;;;2.00;;
14722;SDS011;7452;55.594;12.986;2023-05-21T13:46:29;2.70;;;1.90;;
14722;SDS011;7452;55.594;12.986;2023-05-21T13:48:57;2.10;;;1.93;;
14722;SDS011;7452;55.594;12.986;2023-05-21T13:51:24;3.60;;;2.40;;
14722;SDS011;7452;55.594;12.986;2023-05-21T13:53:51;2.20;;;2.03;;
14722;SDS011;7452;55.594;12.986;2023-05-21T13:56:18;2.03;;;1.90;;
14722;SDS011;7452;55.594;12.986;2023-05-21T13:58:46;2.10;;;1.90;;
14722;SDS011;7452;55.594;12.986;2023-05-21T14:01:13;2.53;;;2.33;;
14722;SDS011;7452;55.594;12.986;2023-05-21T14:03:39;2.50;;;2.30;;
14722;SDS011;7452;55.594;12.986;2023-05-21T14:06:08;1.90;;;1.80;;
14722;SDS011;7452;55.594;12.986;2023-05-21T14:08:35;2.97;;;2.10;;
14722;SDS011;7452;55.594;12.986;2023-05-21T14:11:02;2.20;;;2.00;;
14722;SDS011;7452;55.594;12.986;2023-05-21T14:13:29;2.70;;;2.40;;
14722;SDS011;7452;55.594;12.986;2023-05-21T14:15:56;2.73;;;2.53;;
14722;SDS011;7452;55.594;12.986;2023-05-21T14:18:23;2.40;;;2.00;;
14722;SDS011;7452;55.594;12.986;2023-05-21T14:20:50;2.27;;;2.03;;
14722;SDS011;7452;55.594;12.986;2023-05-21T14:23:19;3.33;;;2.20;;
14722;SDS011;7452;55.594;12.986;2023-05-21T14:25:46;2.90;;;2.20;;
14722;SDS011;7452;55.594;12.986;2023-05-21T14:28:13;2.10;;;2.00;;
14722;SDS011;7452;55.594;12.986;2023-05-21T14:30:40;2.40;;;2.20;;
14722;SDS011;7452;55.594;12.986;2023-05-21T14:33:07;2.40;;;2.00;;
14722;SDS011;7452;55.594;12.986;2023-05-21T14:35:34;2.30;;;2.00;;
14722;SDS011;7452;55.594;12.986;2023-05-21T14:38:01;2.00;;;1.90;;
14722;SDS011;7452;55.594;12.986;2023-05-21T14:40:29;2.70;;;2.30;;
14722;SDS011;7452;55.594;12.986;2023-05-21T14:42:56;1.93;;;1.83;;
14722;SDS011;7452;55.594;12.986;2023-05-21T14:45:23;2.20;;;2.10;;
14722;SDS011;7452;55.594;12.986;2023-05-21T14:47:50;2.20;;;2.00;;
14722;SDS011;7452;55.594;12.986;2023-05-21T14:50:17;2.30;;;2.10;;
14722;SDS011;7452;55.594;12.986;2023-05-21T14:52:44;2.10;;;1.90;;
14722;SDS011;7452;55.594;12.986;2023-05-21T14:55:11;2.20;;;2.00;;
14722;SDS011;7452;55.594;12.986;2023-05-21T14:57:41;2.50;;;2.20;;
14722;SDS011;7452;55.594;12.986;2023-05-21T15:00:09;2.70;;;2.20;;
14722;SDS011;7452;55.594;12.986;2023-05-21T15:02:37;2.37;;;2.00;;
14722;SDS011;7452;55.594;12.986;2023-05-21T15:05:04;2.47;;;2.10;;
14722;SDS011;7452;55.594;12.986;2023-05-21T15:07:31;2.70;;;2.50;;
14722;SDS011;7452;55.594;12.986;2023-05-21T15:09:58;2.17;;;1.97;;
14722;SDS011;7452;55.594;12.986;2023-05-21T15:12:25;2.10;;;1.90;;
14722;SDS011;7452;55.594;12.986;2023-05-21T15:14:53;2.07;;;1.87;;
14722;SDS011;7452;55.594;12.986;2023-05-21T15:17:20;3.40;;;2.37;;
14722;SDS011;7452;55.594;12.986;2023-05-21T15:19:47;2.37;;;2.17;;
14722;SDS011;7452;55.594;12.986;2023-05-21T15:22:14;2.27;;;1.90;;
14722;SDS011;7452;55.594;12.986;2023-05-21T15:24:41;2.50;;;2.23;;
14722;SDS011;7452;55.594;12.986;2023-05-21T15:27:09;2.20;;;2.10;;
14722;SDS011;7452;55.594;12.986;2023-05-21T15:29:36;2.50;;;2.30;;
14722;SDS011;7452;55.594;12.986;2023-05-21T15:32:05;2.23;;;2.13;;
14722;SDS011;7452;55.594;12.986;2023-05-21T15:34:32;2.93;;;2.43;;
14722;SDS011;7452;55.594;12.986;2023-05-21T15:36:59;2.30;;;2.10;;
14722;SDS011;7452;55.594;12.986;2023-05-21T15:39:26;2.27;;;2.07;;
14722;SDS011;7452;55.594;12.986;2023-05-21T15:41:53;2.70;;;1.93;;
14722;SDS011;7452;55.594;12.986;2023-05-21T15:44:20;2.37;;;2.00;;
14722;SDS011;7452;55.594;12.986;2023-05-21T15:46:47;2.37;;;2.17;;
14722;SDS011;7452;55.594;12.986;2023-05-21T15:49:16;2.33;;;2.13;;
14722;SDS011;7452;55.594;12.986;2023-05-21T15:51:43;2.30;;;2.10;;
14722;SDS011;7452;55.594;12.986;2023-05-21T15:54:11;2.47;;;2.27;;
14722;SDS011;7452;55.594;12.986;2023-05-21T15:56:38;2.47;;;2.10;;
14722;SDS011;7452;55.594;12.986;2023-05-21T15:59:05;2.40;;;2.20;;
14722;SDS011;7452;55.594;12.986;2023-05-21T16:01:32;2.20;;;2.00;;
14722;SDS011;7452;55.594;12.986;2023-05-21T16:03:59;2.50;;;2.10;;
14722;SDS011;7452;55.594;12.986;2023-05-21T16:06:28;2.40;;;2.20;;
14722;SDS011;7452;55.594;12.986;2023-05-21T16:08:56;2.00;;;1.90;;
14722;SDS011;7452;55.594;12.986;2023-05-21T16:11:23;2.37;;;2.27;;
14722;SDS011;7452;55.594;12.986;2023-05-21T16:13:50;2.10;;;1.90;;
14722;SDS011;7452;55.594;12.986;2023-05-21T16:16:17;2.30;;;2.10;;
14722;SDS011;7452;55.594;12.986;2023-05-21T16:18:45;2.47;;;2.27;;
14722;SDS011;7452;55.594;12.986;2023-05-21T16:21:12;2.23;;;2.13;;
14722;SDS011;7452;55.594;12.986;2023-05-21T16:23:41;2.13;;;2.03;;
14722;SDS011;7452;55.594;12.986;2023-05-21T16:26:08;2.27;;;2.10;;
14722;SDS011;7452;55.594;12.986;2023-05-21T16:28:35;2.50;;;2.30;;
14722;SDS011;7452;55.594;12.986;2023-05-21T16:31:03;2.63;;;2.23;;
14722;SDS011;7452;55.594;12.986;2023-05-21T16:33:30;2.40;;;2.20;;
14722;SDS011;7452;55.594;12.986;2023-05-21T16:35:57;2.40;;;2.20;;
14722;SDS011;7452;55.594;12.986;2023-05-21T16:38:24;2.43;;;2.10;;
14722;SDS011;7452;55.594;12.986;2023-05-21T16:40:52;2.53;;;2.20;;
14722;SDS011;7452;55.594;12.986;2023-05-21T16:43:19;2.67;;;2.47;;
14722;SDS011;7452;55.594;12.986;2023-05-21T16:45:46;2.47;;;2.27;;
14722;SDS011;7452;55.594;12.986;2023-05-21T16:48:16;2.40;;;2.20;;
14722;SDS011;7452;55.594;12.986;2023-05-21T16:50:43;2.57;;;2.37;;
14722;SDS011;7452;55.594;12.986;2023-05-21T16:53:10;3.00;;;2.53;;
14722;SDS011;7452;55.594;12.986;2023-05-21T16:55:38;2.70;;;2.40;;
14722;SDS011;7452;55.594;12.986;2023-05-21T16:58:08;2.60;;;2.40;;
14722;SDS011;7452;55.594;12.986;2023-05-21T17:00:37;2.40;;;2.23;;
14722;SDS011;7452;55.594;12.986;2023-05-21T17:03:05;2.70;;;2.50;;
14722;SDS011;7452;55.594;12.986;2023-05-21T17:05:31;2.60;;;2.40;;
14722;SDS011;7452;55.594;12.986;2023-05-21T17:07:58;2.50;;;2.30;;
14722;SDS011;7452;55.594;12.986;2023-05-21T17:10:25;2.80;;;2.20;;
14722;SDS011;7452;55.594;12.986;2023-05-21T17:12:52;2.40;;;2.20;;
14722;SDS011;7452;55.594;12.986;2023-05-21T17:15:21;2.80;;;2.60;;
14722;SDS011;7452;55.594;12.986;2023-05-21T17:17:48;2.70;;;2.50;;
14722;SDS011;7452;55.594;12.986;2023-05-21T17:20:15;2.73;;;2.50;;
14722;SDS011;7452;55.594;12.986;2023-05-21T17:22:42;2.93;;;2.70;;
14722;SDS011;7452;55.594;12.986;2023-05-21T17:25:09;2.70;;;2.50;;
14722;SDS011;7452;55.594;12.986;2023-05-21T17:27:36;2.53;;;2.33;;
14722;SDS011;7452;55.594;12.986;2023-05-21T17:30:03;3.43;;;2.77;;
14722;SDS011;7452;55.594;12.986;2023-05-21T17:32:32;2.50;;;2.30;;
14722;SDS011;7452;55.594;12.986;2023-05-21T17:34:59;2.70;;;2.50;;
14722;SDS011;7452;55.594;12.986;2023-05-21T17:37:27;3.00;;;2.80;;
14722;SDS011;7452;55.594;12.986;2023-05-21T17:39:54;3.10;;;2.80;;
14722;SDS011;7452;55.594;12.986;2023-05-21T17:42:21;2.90;;;2.70;;
14722;SDS011;7452;55.594;12.986;2023-05-21T17:44:48;2.80;;;2.60;;
14722;SDS011;7452;55.594;12.986;2023-05-21T17:47:15;2.70;;;2.50;;
14722;SDS011;7452;55.594;12.986;2023-05-21T17:49:43;2.70;;;2.50;;
14722;SDS011;7452;55.594;12.986;2023-05-21T17:52:10;3.20;;;2.50;;
14722;SDS011;7452;55.594;12.986;2023-05-21T17:54:37;2.60;;;2.40;;
14722;SDS011;7452;55.594;12.986;2023-05-21T17:57:04;2.93;;;2.63;;
14722;SDS011;7452;55.594;12.986;2023-05-21T17:59:31;2.53;;;2.33;;
14722;SDS011;7452;55.594;12.986;2023-05-21T18:01:58;2.60;;;2.40;;
14722;SDS011;7452;55.594;12.986;2023-05-21T18:04:26;2.70;;;2.50;;
14722;SDS011;7452;55.594;12.986;2023-05-21T18:06:54;3.10;;;2.90;;
14722;SDS011;7452;55.594;12.986;2023-05-21T18:09:21;2.90;;;2.60;;
14722;SDS011;7452;55.594;12.986;2023-05-21T18:11:48;2.93;;;2.70;;
14722;SDS011;7452;55.594;12.986;2023-05-21T18:14:15;2.80;;;2.50;;
14722;SDS011;7452;55.594;12.986;2023-05-21T18:16:42;2.57;;;2.37;;
14722;SDS011;7452;55.594;12.986;2023-05-21T18:19:08;2.70;;;2.50;;
14722;SDS011;7452;55.594;12.986;2023-05-21T18:21:36;2.70;;;2.50;;
14722;SDS011;7452;55.594;12.986;2023-05-21T18:24:05;2.73;;;2.53;;
14722;SDS011;7452;55.594;12.986;2023-05-21T18:26:32;2.73;;;2.53;;
14722;SDS011;7452;55.594;12.986;2023-05-21T18:28:59;7.00;;;3.10;;
14722;SDS011;7452;55.594;12.986;2023-05-21T18:31:26;3.50;;;2.80;;
14722;SDS011;7452;55.594;12.986;2023-05-21T18:33:53;5.00;;;2.77;;
14722;SDS011;7452;55.594;12.986;2023-05-21T18:36:20;6.27;;;3.00;;
14722;SDS011;7452;55.594;12.986;2023-05-21T18:38:47;4.77;;;2.77;;
14722;SDS011;7452;55.594;12.986;2023-05-21T18:41:16;3.90;;;2.93;;
14722;SDS011;7452;55.594;12.986;2023-05-21T18:43:43;4.50;;;2.90;;
14722;SDS011;7452;55.594;12.986;2023-05-21T18:46:10;4.63;;;2.87;;
14722;SDS011;7452;55.594;12.986;2023-05-21T18:48:37;4.73;;;2.80;;
14722;SDS011;7452;55.594;12.986;2023-05-21T18:51:05;5.13;;;3.03;;
14722;SDS011;7452;55.594;12.986;2023-05-21T18:53:32;2.70;;;2.50;;
14722;SDS011;7452;55.594;12.986;2023-05-21T18:55:59;5.80;;;3.17;;
14722;SDS011;7452;55.594;12.986;2023-05-21T18:58:27;3.83;;;3.10;;
14722;SDS011;7452;55.594;12.986;2023-05-21T19:00:54;5.73;;;3.20;;
14722;SDS011;7452;55.594;12.986;2023-05-21T19:03:21;5.07;;;3.10;;
14722;SDS011;7452;55.594;12.986;2023-05-21T19:05:48;4.00;;;3.40;;
14722;SDS011;7452;55.594;12.986;2023-05-21T19:08:15;3.83;;;3.00;;
14722;SDS011;7452;55.594;12.986;2023-05-21T19:10:42;3.67;;;2.80;;
14722;SDS011;7452;55.594;12.986;2023-05-21T19:13:09;5.50;;;3.30;;
14722;SDS011;7452;55.594;12.986;2023-05-21T19:15:37;5.23;;;3.13;;
14722;SDS011;7452;55.594;12.986;2023-05-21T19:18:04;4.03;;;3.00;;
14722;SDS011;7452;55.594;12.986;2023-05-21T19:20:32;4.30;;;2.83;;
14722;SDS011;7452;55.594;12.986;2023-05-21T19:23:00;4.53;;;3.07;;
14722;SDS011;7452;55.594;12.986;2023-05-21T19:25:28;3.10;;;2.50;;
14722;SDS011;7452;55.594;12.986;2023-05-21T19:27:56;4.50;;;3.07;;
14722;SDS011;7452;55.594;12.986;2023-05-21T19:30:24;3.77;;;3.20;;
14722;SDS011;7452;55.594;12.986;2023-05-21T19:32:53;4.13;;;2.93;;
14722;SDS011;7452;55.594;12.986;2023-05-21T19:35:20;3.67;;;2.90;;
14722;SDS011;7452;55.594;12.986;2023-05-21T19:37:47;5.43;;;3.03;;
14722;SDS011;7452;55.594;12.986;2023-05-21T19:40:14;3.33;;;2.60;;
14722;SDS011;7452;55.594;12.986;2023-05-21T19:42:41;6.33;;;3.07;;
14722;SDS011;7452;55.594;12.986;2023-05-21T19:45:09;3.80;;;3.00;;
14722;SDS011;7452;55.594;12.986;2023-05-21T19:47:37;3.10;;;2.77;;
14722;SDS011;7452;55.594;12.986;2023-05-21T19:50:08;3.93;;;2.80;;
14722;SDS011;7452;55.594;12.986;2023-05-21T19:52:36;3.33;;;2.63;;
14722;SDS011;7452;55.594;12.986;2023-05-21T19:55:03;4.80;;;2.80;;
14722;SDS011;7452;55.594;12.986;2023-05-21T19:57:32;6.23;;;3.20;;
14722;SDS011;7452;55.594;12.986;2023-05-21T19:59:59;4.77;;;3.30;;
14722;SDS011;7452;55.594;12.986;2023-05-21T20:02:27;6.60;;;3.13;;
14722;SDS011;7452;55.594;12.986;2023-05-21T20:04:54;3.30;;;3.00;;
14722;SDS011;7452;55.594;12.986;2023-05-21T20:07:23;5.07;;;3.47;;
14722;SDS011;7452;55.594;12.986;2023-05-21T20:09:50;4.43;;;3.63;;
14722;SDS011;7452;55.594;12.986;2023-05-21T20:12:17;4.33;;;3.80;;
14722;SDS011;7452;55.594;12.986;2023-05-21T20:14:44;5.43;;;4.60;;
14722;SDS011;7452;55.594;12.986;2023-05-21T20:17:11;5.80;;;4.77;;
14722;SDS011;7452;55.594;12.986;2023-05-21T20:19:39;5.10;;;4.10;;
14722;SDS011;7452;55.594;12.986;2023-05-21T20:22:06;5.90;;;4.00;;
14722;SDS011;7452;55.594;12.986;2023-05-21T20:24:34;4.23;;;3.77;;
14722;SDS011;7452;55.594;12.986;2023-05-21T20:27:01;4.67;;;3.23;;
14722;SDS011;7452;55.594;12.986;2023-05-21T20:29:28;4.93;;;3.90;;
14722;SDS011;7452;55.594;12.986;2023-05-21T20:31:55;4.17;;;3.57;;
14722;SDS011;7452;55.594;12.986;2023-05-21T20:34:23;6.00;;;3.93;;
14722;SDS011;7452;55.594;12.986;2023-05-21T20:36:51;4.73;;;3.90;;
14722;SDS011;7452;55.594;12.986;2023-05-21T20:39:22;5.63;;;3.33;;
14722;SDS011;7452;55.594;12.986;2023-05-21T20:41:52;6.47;;;4.40;;
14722;SDS011;7452;55.594;12.986;2023-05-21T20:44:20;4.80;;;4.00;;
14722;SDS011;7452;55.594;12.986;2023-05-21T20:46:47;5.83;;;4.20;;
14722;SDS011;7452;55.594;12.986;2023-05-21T20:49:14;6.03;;;3.40;;
14722;SDS011;7452;55.594;12.986;2023-05-21T20:51:41;5.70;;;3.80;;
14722;SDS011;7452;55.594;12.986;2023-05-21T20:54:08;6.23;;;4.07;;
14722;SDS011;7452;55.594;12.986;2023-05-21T20:56:36;5.33;;;3.93;;
14722;SDS011;7452;55.594;12.986;2023-05-21T20:59:06;3.90;;;3.50;;
14722;SDS011;7452;55.594;12.986;2023-05-21T21:01:32;4.43;;;3.50;;
14722;SDS011;7452;55.594;12.986;2023-05-21T21:04:01;5.00;;;3.27;;
14722;SDS011;7452;55.594;12.986;2023-05-21T21:06:29;6.23;;;3.30;;
14722;SDS011;7452;55.594;12.986;2023-05-21T21:08:56;4.60;;;3.57;;
14722;SDS011;7452;55.594;12.986;2023-05-21T21:11:23;5.07;;;3.43;;
14722;SDS011;7452;55.594;12.986;2023-05-21T21:13:50;4.67;;;3.50;;
14722;SDS011;7452;55.594;12.986;2023-05-21T21:16:19;3.60;;;3.20;;
14722;SDS011;7452;55.594;12.986;2023-05-21T21:18:46;3.87;;;3.00;;
14722;SDS011;7452;55.594;12.986;2023-05-21T21:21:12;5.13;;;3.63;;
14722;SDS011;7452;55.594;12.986;2023-05-21T21:23:39;3.73;;;3.33;;
14722;SDS011;7452;55.594;12.986;2023-05-21T21:26:06;4.40;;;3.67;;
14722;SDS011;7452;55.594;12.986;2023-05-21T21:28:33;3.97;;;3.50;;
14722;SDS011;7452;55.594;12.986;2023-05-21T21:31:00;5.23;;;3.33;;
14722;SDS011;7452;55.594;12.986;2023-05-21T21:33:29;4.90;;;3.50;;
14722;SDS011;7452;55.594;12.986;2023-05-21T21:35:56;4.07;;;3.10;;
14722;SDS011;7452;55.594;12.986;2023-05-21T21:38:25;4.53;;;3.33;;
14722;SDS011;7452;55.594;12.986;2023-05-21T21:40:52;4.27;;;3.40;;
14722;SDS011;7452;55.594;12.986;2023-05-21T21:43:19;4.20;;;3.30;;
14722;SDS011;7452;55.594;12.986;2023-05-21T21:45:46;4.47;;;3.30;;
14722;SDS011;7452;55.594;12.986;2023-05-21T21:48:12;3.97;;;2.97;;
14722;SDS011;7452;55.594;12.986;2023-05-21T21:50:41;3.43;;;3.13;;
14722;SDS011;7452;55.594;12.986;2023-05-21T21:53:08;3.97;;;2.87;;
14722;SDS011;7452;55.594;12.986;2023-05-21T21:55:36;3.87;;;2.80;;
14722;SDS011;7452;55.594;12.986;2023-05-21T21:58:03;3.53;;;2.83;;
14722;SDS011;7452;55.594;12.986;2023-05-21T22:00:30;4.30;;;3.23;;
14722;SDS011;7452;55.594;12.986;2023-05-21T22:02:57;3.70;;;3.00;;
14722;SDS011;7452;55.594;12.986;2023-05-21T22:05:24;3.93;;;3.13;;
14722;SDS011;7452;55.594;12.986;2023-05-21T22:07:56;3.20;;;2.90;;
14722;SDS011;7452;55.594;12.986;2023-05-21T22:10:23;3.40;;;3.10;;
14722;SDS011;7452;55.594;12.986;2023-05-21T22:12:51;3.73;;;3.13;;
14722;SDS011;7452;55.594;12.986;2023-05-21T22:15:18;3.53;;;2.87;;
14722;SDS011;7452;55.594;12.986;2023-05-21T22:17:48;3.80;;;2.77;;
14722;SDS011;7452;55.594;12.986;2023-05-21T22:20:15;3.90;;;3.10;;
14722;SDS011;7452;55.594;12.986;2023-05-21T22:22:42;3.77;;;3.30;;
14722;SDS011;7452;55.594;12.986;2023-05-21T22:25:11;4.73;;;3.20;;
14722;SDS011;7452;55.594;12.986;2023-05-21T22:27:38;4.70;;;3.23;;
14722;SDS011;7452;55.594;12.986;2023-05-21T22:30:06;4.43;;;3.00;;
14722;SDS011;7452;55.594;12.986;2023-05-21T22:32:34;3.00;;;2.70;;
14722;SDS011;7452;55.594;12.986;2023-05-21T22:35:01;3.10;;;2.77;;
14722;SDS011;7452;55.594;12.986;2023-05-21T22:37:28;4.27;;;3.20;;
14722;SDS011;7452;55.594;12.986;2023-05-21T22:39:55;3.53;;;3.13;;
14722;SDS011;7452;55.594;12.986;2023-05-21T22:42:24;4.33;;;2.80;;
14722;SDS011;7452;55.594;12.986;2023-05-21T22:44:50;3.03;;;2.80;;
14722;SDS011;7452;55.594;12.986;2023-05-21T22:47:17;3.47;;;3.17;;
14722;SDS011;7452;55.594;12.986;2023-05-21T22:49:47;3.13;;;2.83;;
14722;SDS011;7452;55.594;12.986;2023-05-21T22:52:16;3.70;;;2.77;;
14722;SDS011;7452;55.594;12.986;2023-05-21T22:54:45;4.10;;;2.93;;
14722;SDS011;7452;55.594;12.986;2023-05-21T22:57:12;2.83;;;2.53;;
14722;SDS011;7452;55.594;12.986;2023-05-21T22:59:40;4.00;;;2.70;;
14722;SDS011;7452;55.594;12.986;2023-05-21T23:02:07;3.00;;;2.70;;
14722;SDS011;7452;55.594;12.986;2023-05-21T23:04:34;3.20;;;2.90;;
14722;SDS011;7452;55.594;12.986;2023-05-21T23:07:02;3.00;;;2.70;;
14722;SDS011;7452;55.594;12.986;2023-05-21T23:09:29;3.10;;;2.80;;
14722;SDS011;7452;55.594;12.986;2023-05-21T23:11:56;2.80;;;2.60;;